Time;durP1;ratioP1;P1;durP2;ratioP2;P2;SDS_P1;SDS_P2;PMS_P1;PMS_P2;Temp;Humidity;BMP_temperature;BMP_pressure;BME280_temperature;BME280_humidity;BME280_pressure;Samples;Min_cycle;Max_cycle;Signal;HPM_P1;HPM_P2
2023/04/01 00:00:15;;;;;;;2.60;2.40;;;;;8.10;95536.00;;;;5001438;28;20237;-73
2023/04/01 00:03:04;;;;;;;1.87;1.77;;;;;7.60;95539.00;;;;5001576;28;20209;-73
2023/04/01 00:05:53;;;;;;;2.87;2.57;;;;;7.60;95537.00;;;;4998208;28;20202;-74
2023/04/01 00:08:44;;;;;;;1.60;1.50;;;;;7.50;95529.00;;;;5001483;28;20669;-73
2023/04/01 00:11:34;;;;;;;2.37;1.50;;;;;7.70;95533.00;;;;4993028;28;20238;-73
2023/04/01 00:14:23;;;;;;;1.60;1.50;;;;;7.90;95531.00;;;;5005110;28;20205;-74
2023/04/01 00:17:12;;;;;;;2.30;1.80;;;;;8.00;95534.00;;;;5007906;28;20311;-73
2023/04/01 00:20:02;;;;;;;1.80;1.70;;;;;8.00;95536.00;;;;5004230;28;20320;-74
2023/04/01 00:22:51;;;;;;;2.13;1.73;;;;;7.70;95536.00;;;;5002942;28;20210;-73
2023/04/01 00:25:40;;;;;;;1.63;1.53;;;;;7.30;95528.00;;;;5007355;28;20768;-67
2023/04/01 00:28:31;;;;;;;1.60;1.50;;;;;7.00;95531.00;;;;4999706;28;20229;-73
2023/04/01 00:31:20;;;;;;;1.87;1.60;;;;;7.10;95516.00;;;;5007208;28;20256;-69
2023/04/01 00:34:09;;;;;;;7.10;2.00;;;;;7.50;95522.00;;;;5000656;28;20213;-69
2023/04/01 00:36:58;;;;;;;7.00;1.90;;;;;7.70;95520.00;;;;5002046;28;20257;-69
2023/04/01 00:39:48;;;;;;;3.23;2.27;;;;;7.80;95519.00;;;;5006421;28;20289;-68
2023/04/01 00:42:37;;;;;;;1.73;1.63;;;;;7.40;95514.00;;;;5002337;28;20812;-68
2023/04/01 00:45:36;;;;;;;2.47;1.87;;;;;7.20;95511.00;;;;5002468;28;20624;-69
2023/04/01 00:48:28;;;;;;;3.20;1.70;;;;;7.30;95498.00;;;;5006816;28;20285;-69
2023/04/01 00:51:19;;;;;;;1.90;1.80;;;;;7.40;95494.00;;;;5006775;28;20257;-69
2023/04/01 00:54:10;;;;;;;2.10;2.00;;;;;7.50;95503.00;;;;5010396;28;20236;-69
2023/04/01 00:57:02;;;;;;;3.47;3.03;;;;;7.40;95505.00;;;;5008576;28;20206;-70
2023/04/01 00:59:53;;;;;;;2.63;1.70;;;;;7.30;95485.00;;;;5005440;28;20234;-68
2023/04/01 01:02:45;;;;;;;1.83;1.73;;;;;7.50;95484.00;;;;5005026;28;20293;-69
2023/04/01 01:05:47;;;;;;;5.20;2.10;;;;;7.30;95479.00;;;;5008728;28;20221;-69
2023/04/01 01:08:48;;;;;;;1.83;1.73;;;;;7.40;95475.00;;;;5003643;28;20851;-69
2023/04/01 01:11:41;;;;;;;2.87;1.83;;;;;7.50;95483.00;;;;5005466;28;20245;-69
2023/04/01 01:14:42;;;;;;;3.80;2.17;;;;;7.40;95486.00;;;;5004447;28;20228;-69
2023/04/01 01:17:40;;;;;;;2.00;1.90;;;;;7.00;95478.00;;;;5007921;28;20194;-67
2023/04/01 01:20:58;;;;;;;2.47;2.13;;;;;6.80;95488.00;;;;5003377;28;20237;-67
2023/04/01 01:24:09;;;;;;;2.00;1.80;;;;;6.60;95482.00;;;;5005438;28;20203;-72
2023/04/01 01:27:02;;;;;;;1.57;1.47;;;;;6.80;95467.00;;;;5010201;28;20214;-70
2023/04/01 01:30:07;;;;;;;1.50;1.40;;;;;7.00;95462.00;;;;5007886;28;20848;-70
2023/04/01 01:33:15;;;;;;;1.20;1.10;;;;;7.00;95480.00;;;;5003635;28;20228;-71
2023/04/01 01:36:10;;;;;;;1.53;1.43;;;;;7.30;95475.00;;;;5009126;28;20247;-71
2023/04/01 01:38:59;;;;;;;1.73;1.63;;;;;7.40;95480.00;;;;5006996;28;20202;-71
2023/04/01 01:41:49;;;;;;;4.33;1.80;;;;;7.20;95475.00;;;;5008668;28;20226;-71
2023/04/01 01:44:39;;;;;;;1.30;1.30;;;;;6.70;95463.00;;;;5015593;28;20213;-69
2023/04/01 01:47:29;;;;;;;2.73;1.97;;;;;7.00;95454.00;;;;5013682;28;20252;-69
2023/04/01 01:50:19;;;;;;;3.83;1.90;;;;;7.30;95446.00;;;;5008460;28;20272;-68
2023/04/01 01:53:11;;;;;;;1.40;1.30;;;;;7.40;95443.00;;;;5011951;28;20291;-69
2023/04/01 01:56:00;;;;;;;2.67;1.77;;;;;7.50;95438.00;;;;5022097;28;20773;-68
2023/04/01 01:58:51;;;;;;;1.43;1.33;;;;;7.30;95448.00;;;;5004708;28;20245;-68
2023/04/01 02:01:44;;;;;;;1.87;1.77;;;;;7.10;95439.00;;;;5003484;28;20668;-68
2023/04/01 02:04:33;;;;;;;1.30;1.27;;;;;6.90;95436.00;;;;5002798;28;20220;-69
2023/04/01 02:07:24;;;;;;;1.87;1.73;;;;;7.10;95437.00;;;;5004355;28;20696;-69
2023/04/01 02:10:15;;;;;;;4.37;1.70;;;;;7.40;95434.00;;;;5008047;28;20229;-69
2023/04/01 02:13:09;;;;;;;1.57;1.47;;;;;7.40;95432.00;;;;5003852;28;20217;-69
2023/04/01 02:16:01;;;;;;;1.70;1.53;;;;;7.50;95426.00;;;;5015131;28;20573;-69
2023/04/01 02:18:53;;;;;;;3.07;1.87;;;;;7.20;95429.00;;;;5008925;28;20203;-69
2023/04/01 02:21:42;;;;;;;1.50;1.40;;;;;7.10;95432.00;;;;5009457;28;20225;-69
2023/04/01 02:24:32;;;;;;;2.00;1.73;;;;;6.40;95436.00;;;;5005134;28;20261;-73
2023/04/01 02:27:23;;;;;;;1.40;1.30;;;;;6.60;95431.00;;;;5005699;28;20558;-71
2023/04/01 02:30:13;;;;;;;1.57;1.47;;;;;7.00;95424.00;;;;5011142;28;20725;-71
2023/04/01 02:33:03;;;;;;;1.50;1.37;;;;;7.00;95427.00;;;;5004856;28;20264;-71
2023/04/01 02:35:52;;;;;;;1.50;1.40;;;;;6.90;95421.00;;;;5006773;28;20210;-71
2023/04/01 02:38:42;;;;;;;1.37;1.27;;;;;6.80;95413.00;;;;5000568;28;20272;-71
2023/04/01 02:41:31;;;;;;;1.57;1.33;;;;;6.80;95424.00;;;;5003241;28;20644;-71
2023/04/01 02:44:21;;;;;;;2.17;1.50;;;;;6.90;95431.00;;;;5006213;28;20266;-70
2023/04/01 02:47:10;;;;;;;1.93;1.60;;;;;6.80;95428.00;;;;5005426;28;20210;-71
2023/04/01 02:49:59;;;;;;;4.53;1.90;;;;;6.60;95432.00;;;;5001875;28;20281;-71
2023/04/01 02:52:48;;;;;;;1.33;1.23;;;;;6.40;95429.00;;;;5005947;28;20217;-70
2023/04/01 02:55:37;;;;;;;1.57;1.47;;;;;6.80;95434.00;;;;5009125;28;20257;-71
2023/04/01 02:58:26;;;;;;;2.10;1.80;;;;;6.90;95422.00;;;;5001975;28;20671;-72
2023/04/01 03:01:17;;;;;;;2.10;1.73;;;;;6.90;95424.00;;;;5004365;28;20235;-71
2023/04/01 03:04:06;;;;;;;5.47;2.30;;;;;7.00;95418.00;;;;5001375;28;20213;-71
2023/04/01 03:06:55;;;;;;;1.80;1.57;;;;;6.70;95423.00;;;;5001323;28;20245;-69
2023/04/01 03:09:44;;;;;;;2.27;1.50;;;;;6.40;95428.00;;;;5003497;28;20273;-71
2023/04/01 03:12:33;;;;;;;3.03;1.10;;;;;6.10;95425.00;;;;5013190;28;20260;-70
2023/04/01 03:15:22;;;;;;;1.37;1.27;;;;;6.40;95434.00;;;;5014071;28;20864;-68
2023/04/01 03:18:12;;;;;;;0.80;0.80;;;;;6.30;95428.00;;;;5008059;28;20202;-69
2023/04/01 03:21:17;;;;;;;1.87;1.77;;;;;6.30;95432.00;;;;5007178;28;20316;-70
2023/04/01 03:24:07;;;;;;;1.10;1.00;;;;;6.10;95430.00;;;;5006048;28;20258;-70
2023/04/01 03:26:56;;;;;;;1.27;1.17;;;;;6.40;95441.00;;;;5009082;28;20261;-70
2023/04/01 03:29:45;;;;;;;1.03;1.03;;;;;6.60;95443.00;;;;5006607;28;20313;-70
2023/04/01 03:32:34;;;;;;;3.30;1.33;;;;;6.40;95445.00;;;;5009210;28;20725;-70
2023/04/01 03:35:25;;;;;;;2.13;1.40;;;;;6.50;95459.00;;;;5012384;28;20219;-70
2023/04/01 03:38:15;;;;;;;3.03;2.40;;;;;6.30;95447.00;;;;5006544;28;20203;-70
2023/04/01 03:41:04;;;;;;;1.07;1.07;;;;;6.30;95444.00;;;;5003626;28;20582;-69
2023/04/01 03:43:54;;;;;;;2.67;1.80;;;;;6.30;95449.00;;;;5008897;28;20246;-68
2023/04/01 03:46:43;;;;;;;1.73;1.63;;;;;6.40;95437.00;;;;5003103;28;20282;-70
2023/04/01 03:49:32;;;;;;;4.90;1.80;;;;;6.70;95451.00;;;;5005898;28;20229;-69
2023/04/01 03:52:22;;;;;;;1.90;1.67;;;;;6.40;95442.00;;;;5005926;28;20205;-70
2023/04/01 03:55:12;;;;;;;4.07;1.47;;;;;6.10;95459.00;;;;5005548;28;20312;-68
2023/04/01 03:58:02;;;;;;;1.70;1.57;;;;;6.30;95463.00;;;;5005674;28;20265;-69
2023/04/01 04:00:50;;;;;;;1.90;1.37;;;;;6.30;95463.00;;;;5008844;28;20253;-69
2023/04/01 04:03:39;;;;;;;2.47;1.20;;;;;6.00;95474.00;;;;5009366;28;20226;-69
2023/04/01 04:06:29;;;;;;;2.90;1.27;;;;;6.30;95467.00;;;;5001366;28;20233;-70
2023/04/01 04:09:19;;;;;;;1.23;1.00;;;;;6.10;95469.00;;;;5002822;28;20690;-70
2023/04/01 04:12:08;;;;;;;2.17;2.03;;;;;6.00;95465.00;;;;5013661;28;20248;-68
2023/04/01 04:14:58;;;;;;;1.00;1.00;;;;;6.00;95469.00;;;;5001416;28;20763;-71
2023/04/01 04:17:47;;;;;;;4.33;1.40;;;;;6.20;95475.00;;;;4999312;28;20288;-71
2023/04/01 04:20:36;;;;;;;1.70;1.60;;;;;6.50;95476.00;;;;5001249;28;20251;-71
2023/04/01 04:23:25;;;;;;;1.17;1.07;;;;;6.50;95482.00;;;;5003836;28;20336;-71
2023/04/01 04:26:16;;;;;;;1.43;1.13;;;;;6.50;95476.00;;;;5000416;28;20197;-71
2023/04/01 04:29:05;;;;;;;1.27;1.17;;;;;6.40;95473.00;;;;5020975;28;20263;-71
2023/04/01 04:31:54;;;;;;;1.20;1.10;;;;;6.40;95481.00;;;;5009046;28;20722;-71
2023/04/01 04:34:43;;;;;;;0.80;0.80;;;;;6.10;95483.00;;;;5002083;28;20214;-71
2023/04/01 04:37:32;;;;;;;1.23;1.13;;;;;6.30;95476.00;;;;5006104;28;20246;-71
2023/04/01 04:40:21;;;;;;;1.20;1.10;;;;;6.30;95476.00;;;;5008033;28;20684;-71
2023/04/01 04:43:14;;;;;;;2.03;1.03;;;;;6.20;95483.00;;;;5016135;28;20284;-71
2023/04/01 04:46:06;;;;;;;1.10;1.00;;;;;6.40;95474.00;;;;4997122;28;20252;-71
2023/04/01 04:48:55;;;;;;;0.87;0.83;;;;;6.40;95472.00;;;;5001829;28;20209;-71
2023/04/01 04:51:44;;;;;;;2.07;1.20;;;;;6.50;95471.00;;;;5019987;28;20260;-71
2023/04/01 04:54:33;;;;;;;1.57;1.47;;;;;6.50;95471.00;;;;5009346;28;20240;-71
2023/04/01 04:57:22;;;;;;;1.10;1.00;;;;;6.20;95469.00;;;;5010403;28;20210;-71
2023/04/01 05:00:13;;;;;;;1.40;0.93;;;;;6.50;95464.00;;;;5010930;28;20241;-71
2023/04/01 05:03:02;;;;;;;2.03;1.27;;;;;6.60;95472.00;;;;5007815;28;20415;-70
2023/04/01 05:05:52;;;;;;;2.20;1.07;;;;;6.60;95478.00;;;;5001514;28;20206;-70
2023/04/01 05:08:42;;;;;;;0.90;0.90;;;;;6.70;95463.00;;;;5001308;28;20225;-71
2023/04/01 05:11:31;;;;;;;1.57;1.23;;;;;6.40;95472.00;;;;5007550;28;20335;-71
2023/04/01 05:14:20;;;;;;;1.50;0.90;;;;;6.50;95469.00;;;;4997994;28;20241;-72
2023/04/01 05:17:12;;;;;;;1.07;0.93;;;;;6.80;95464.00;;;;5008257;28;20304;-71
2023/04/01 05:20:01;;;;;;;1.20;1.10;;;;;6.80;95471.00;;;;4997630;28;20871;-72
2023/04/01 05:22:50;;;;;;;4.93;1.50;;;;;6.80;95483.00;;;;5005340;28;20206;-71
2023/04/01 05:25:39;;;;;;;1.40;1.30;;;;;6.60;95481.00;;;;5010171;28;20206;-72
2023/04/01 05:28:28;;;;;;;0.83;0.83;;;;;6.60;95483.00;;;;5005439;28;20261;-71
2023/04/01 05:31:17;;;;;;;2.23;1.00;;;;;6.50;95491.00;;;;5011582;28;20222;-71
2023/04/01 05:34:07;;;;;;;1.30;1.20;;;;;6.70;95485.00;;;;5007736;28;20206;-72
2023/04/01 05:36:56;;;;;;;1.07;0.97;;;;;6.90;95490.00;;;;4999858;28;20218;-72
2023/04/01 05:39:45;;;;;;;2.13;1.27;;;;;7.00;95488.00;;;;5002157;28;20226;-72
2023/04/01 05:42:35;;;;;;;4.93;2.23;;;;;7.00;95499.00;;;;5005847;28;20232;-71
2023/04/01 05:45:25;;;;;;;1.70;1.60;;;;;6.80;95492.00;;;;5003335;28;20215;-72
2023/04/01 05:48:15;;;;;;;2.63;2.43;;;;;7.00;95482.00;;;;5004060;28;20254;-71
2023/04/01 05:51:06;;;;;;;1.90;1.80;;;;;7.10;95480.00;;;;5010859;28;20229;-71
2023/04/01 05:53:55;;;;;;;3.43;1.80;;;;;7.10;95478.00;;;;4999902;28;20210;-72
2023/04/01 05:56:44;;;;;;;2.00;1.87;;;;;7.20;95493.00;;;;5001646;28;20202;-72
2023/04/01 05:59:34;;;;;;;1.40;1.30;;;;;7.30;95476.00;;;;5002027;28;20253;-71
2023/04/01 06:02:23;;;;;;;9.20;8.00;;;;;7.20;95474.00;;;;5010025;28;20233;-69
2023/04/01 06:05:16;;;;;;;1.40;1.30;;;;;6.90;95475.00;;;;5006503;28;20202;-71
2023/04/01 06:08:12;;;;;;;1.50;1.33;;;;;7.10;95476.00;;;;5005475;28;20245;-71
2023/04/01 06:11:13;;;;;;;1.90;1.80;;;;;7.30;95463.00;;;;5008853;28;20714;-72
2023/04/01 06:14:13;;;;;;;2.47;2.27;;;;;7.70;95481.00;;;;5004974;28;20735;-71
2023/04/01 06:17:14;;;;;;;4.00;2.70;;;;;8.00;95476.00;;;;5010151;28;20237;-71
2023/04/01 06:20:07;;;;;;;2.63;2.43;;;;;8.20;95468.00;;;;5010308;28;20770;-71
2023/04/01 06:23:23;;;;;;;2.53;2.27;;;;;7.70;95471.00;;;;5001592;28;20209;-71
2023/04/01 06:26:18;;;;;;;2.30;2.10;;;;;8.40;95474.00;;;;5005874;28;20194;-70
2023/04/01 06:29:20;;;;;;;2.10;1.90;;;;;8.50;95470.00;;;;5004228;28;20769;-71
2023/04/01 06:32:46;;;;;;;2.53;2.23;;;;;7.90;95467.00;;;;5007183;28;20213;-71
2023/04/01 06:35:50;;;;;;;2.50;2.33;;;;;8.20;95466.00;;;;5004330;28;20213;-70
2023/04/01 06:38:52;;;;;;;4.47;1.33;;;;;8.20;95470.00;;;;5008304;28;20228;-70
2023/04/01 06:42:03;;;;;;;2.10;1.53;;;;;8.90;95471.00;;;;5004461;28;20234;-70
2023/04/01 06:44:59;;;;;;;1.97;1.20;;;;;9.20;95471.00;;;;5000281;28;20728;-70
2023/04/01 06:47:57;;;;;;;4.67;2.90;;;;;9.40;95485.00;;;;4994548;28;20638;-70
2023/04/01 06:50:55;;;;;;;4.20;3.00;;;;;9.80;95479.00;;;;5003591;28;20791;-70
2023/04/01 06:53:50;;;;;;;3.90;3.47;;;;;9.90;95492.00;;;;5002511;28;20237;-70
2023/04/01 06:56:42;;;;;;;5.80;2.93;;;;;9.90;95478.00;;;;4998698;28;20248;-70
2023/04/01 06:59:34;;;;;;;3.83;3.10;;;;;9.90;95481.00;;;;5006753;28;20218;-70
2023/04/01 07:02:30;;;;;;;4.63;2.53;;;;;10.80;95489.00;;;;5001676;28;20202;-70
2023/04/01 07:05:19;;;;;;;2.27;1.80;;;;;10.50;95495.00;;;;5004261;28;20210;-70
2023/04/01 07:08:12;;;;;;;5.53;2.43;;;;;10.80;95502.00;;;;5012643;28;20228;-71
2023/04/01 07:11:05;;;;;;;4.43;2.73;;;;;11.10;95508.00;;;;5009985;28;20242;-71
2023/04/01 07:13:56;;;;;;;2.70;2.50;;;;;11.60;95518.00;;;;5001350;28;20210;-70
2023/04/01 07:16:49;;;;;;;4.60;3.10;;;;;11.50;95518.00;;;;5015241;28;20321;-70
2023/04/01 07:19:43;;;;;;;3.93;3.60;;;;;11.70;95507.00;;;;4998200;28;20208;-70
2023/04/01 07:22:36;;;;;;;4.53;3.50;;;;;11.90;95508.00;;;;5008157;28;20206;-71
2023/04/01 07:25:27;;;;;;;3.80;2.83;;;;;12.20;95511.00;;;;4998038;28;20265;-70
2023/04/01 07:28:18;;;;;;;7.67;2.97;;;;;12.50;95504.00;;;;5003738;28;20574;-71
2023/04/01 07:31:16;;;;;;;2.30;2.10;;;;;12.80;95515.00;;;;5008087;28;20260;-70
2023/04/01 07:34:10;;;;;;;2.90;2.40;;;;;13.20;95507.00;;;;4997236;28;20202;-70
2023/04/01 07:37:04;;;;;;;2.87;1.70;;;;;13.60;95509.00;;;;5005040;28;20237;-71
2023/04/01 07:39:56;;;;;;;1.47;1.37;;;;;13.80;95516.00;;;;5005651;28;20230;-71
2023/04/01 07:43:02;;;;;;;2.10;1.90;;;;;14.10;95516.00;;;;5002186;28;20256;-71
2023/04/01 07:45:58;;;;;;;5.77;1.80;;;;;14.30;95529.00;;;;5001714;28;20217;-71
2023/04/01 07:48:51;;;;;;;4.80;4.30;;;;;14.40;95531.00;;;;5006046;28;20206;-72
2023/04/01 07:51:43;;;;;;;3.03;1.70;;;;;14.60;95538.00;;;;5009713;28;20710;-71
2023/04/01 07:54:39;;;;;;;2.73;1.70;;;;;14.20;95534.00;;;;5008040;28;20272;-72
2023/04/01 07:57:34;;;;;;;1.33;1.23;;;;;14.40;95542.00;;;;5004177;28;20762;-71
2023/04/01 08:00:27;;;;;;;2.40;1.30;;;;;14.40;95547.00;;;;5006132;28;20289;-71
2023/04/01 08:03:34;;;;;;;2.38;1.50;;;;;14.40;95552.00;;;;5005987;28;20403;-71
2023/04/01 08:06:28;;;;;;;1.57;1.40;;;;;14.30;95540.00;;;;5005298;28;20198;-72
2023/04/01 08:09:23;;;;;;;3.70;1.90;;;;;14.20;95547.00;;;;5004230;28;20279;-72
2023/04/01 08:12:22;;;;;;;1.23;0.97;;;;;14.20;95550.00;;;;5000038;28;20225;-71
2023/04/01 08:15:17;;;;;;;2.30;0.90;;;;;14.80;95541.00;;;;5003729;28;20297;-71
2023/04/01 08:18:16;;;;;;;1.50;0.80;;;;;15.00;95542.00;;;;4999158;28;20490;-71
2023/04/01 08:21:13;;;;;;;1.13;0.87;;;;;15.50;95540.00;;;;5002970;28;20468;-71
2023/04/01 08:24:07;;;;;;;1.07;0.90;;;;;15.40;95555.00;;;;5008261;28;20210;-71
2023/04/01 08:26:59;;;;;;;0.60;0.60;;;;;15.70;95550.00;;;;5006713;28;20288;-71
2023/04/01 08:29:52;;;;;;;1.17;0.80;;;;;15.40;95546.00;;;;5004435;28;20588;-71
2023/04/01 08:32:43;;;;;;;5.60;2.63;;;;;15.50;95539.00;;;;5008722;28;20747;-71
2023/04/01 08:35:35;;;;;;;2.03;1.40;;;;;15.50;95548.00;;;;5005507;28;20681;-72
2023/04/01 08:38:30;;;;;;;1.63;1.33;;;;;15.80;95550.00;;;;4997389;28;20209;-72
2023/04/01 08:41:39;;;;;;;4.93;1.43;;;;;15.50;95557.00;;;;5000190;28;20222;-71
2023/04/01 08:44:59;;;;;;;2.77;0.53;;;;;15.40;95566.00;;;;5004979;28;20206;-71
2023/04/01 08:47:57;;;;;;;0.90;0.83;;;;;15.50;95556.00;;;;5000035;28;20221;-71
2023/04/01 08:51:05;;;;;;;0.70;0.67;;;;;15.50;95553.00;;;;4993498;28;20300;-71
2023/04/01 08:54:29;;;;;;;0.50;0.50;;;;;15.50;95568.00;;;;5005419;28;20193;-71
2023/04/01 08:57:27;;;;;;;2.43;0.70;;;;;15.60;95563.00;;;;5006746;28;20205;-71
2023/04/01 09:00:24;;;;;;;4.43;2.00;;;;;15.60;95569.00;;;;5007568;28;20214;-71
2023/04/01 09:03:45;;;;;;;2.40;1.37;;;;;15.70;95580.00;;;;5008057;28;20605;-72
2023/04/01 09:06:39;;;;;;;1.70;1.60;;;;;15.50;95578.00;;;;5007592;28;20213;-72
2023/04/01 09:10:00;;;;;;;2.00;1.10;;;;;15.50;95582.00;;;;5009255;28;20206;-72
2023/04/01 09:12:58;;;;;;;1.13;0.93;;;;;15.70;95587.00;;;;5008510;28;20609;-71
2023/04/01 09:16:11;;;;;;;0.57;0.47;;;;;16.00;95589.00;;;;5008755;28;20255;-71
2023/04/01 09:19:25;;;;;;;1.13;1.07;;;;;16.10;95585.00;;;;5002050;28;20752;-71
2023/04/01 09:22:38;;;;;;;1.10;0.83;;;;;16.20;95596.00;;;;5006525;28;20288;-72
2023/04/01 09:25:51;;;;;;;0.50;0.50;;;;;16.30;95591.00;;;;5009783;28;20241;-71
2023/04/01 09:28:48;;;;;;;1.83;0.70;;;;;16.50;95589.00;;;;5002936;28;20245;-71
2023/04/01 09:31:55;;;;;;;0.50;0.50;;;;;16.60;95595.00;;;;5009836;28;20722;-71
2023/04/01 09:34:55;;;;;;;0.93;0.50;;;;;16.50;95588.00;;;;5000240;28;20208;-71
2023/04/01 09:37:55;;;;;;;0.70;0.70;;;;;16.80;95602.00;;;;5002689;28;20210;-71
2023/04/01 09:40:49;;;;;;;1.37;0.60;;;;;16.90;95600.00;;;;5007717;28;20277;-72
2023/04/01 09:43:55;;;;;;;0.60;0.47;;;;;16.80;95613.00;;;;5011024;28;20233;-71
2023/04/01 09:47:01;;;;;;;0.40;0.40;;;;;16.30;95607.00;;;;5005026;28;20212;-71
2023/04/01 09:50:31;;;;;;;1.23;1.20;;;;;16.30;95606.00;;;;5001863;28;20225;-72
2023/04/01 09:53:34;;;;;;;1.10;1.00;;;;;16.20;95609.00;;;;5009457;28;20276;-72
2023/04/01 09:57:02;;;;;;;1.67;0.80;;;;;16.20;95604.00;;;;5005990;28;20214;-71
2023/04/01 10:00:20;;;;;;;0.40;0.40;;;;;15.30;95605.00;;;;5003858;28;20713;-71
2023/04/01 10:04:10;;;;;;;0.40;0.40;;;;;15.60;95609.00;;;;5001286;28;20222;-72
2023/04/01 10:07:52;;;;;;;0.40;0.30;;;;;16.00;95611.00;;;;4918108;29;20762;-71
2023/04/01 10:11:12;;;;;;;2.90;2.00;;;;;16.10;95612.00;;;;4922611;28;20704;-71
2023/04/01 10:14:27;;;;;;;2.07;1.87;;;;;16.40;95612.00;;;;4998489;28;20202;-71
2023/04/01 10:17:59;;;;;;;0.90;0.80;;;;;16.10;95612.00;;;;5004653;28;20210;-72
2023/04/01 10:21:01;;;;;;;0.93;0.73;;;;;16.60;95618.00;;;;5005649;28;20229;-71
2023/04/01 10:24:18;;;;;;;0.60;0.60;;;;;16.80;95617.00;;;;5002953;28;20279;-71
2023/04/01 10:27:45;;;;;;;0.30;0.30;;;;;15.70;95597.00;;;;5005683;28;20214;-74
2023/04/01 10:31:02;;;;;;;0.27;0.20;;;;;16.40;95602.00;;;;4989252;28;20725;-73
2023/04/01 10:34:22;;;;;;;0.33;0.23;;;;;16.60;95608.00;;;;5000805;28;20289;-73
2023/04/01 10:37:24;;;;;;;0.30;0.30;;;;;15.80;95618.00;;;;4997890;28;20246;-71
2023/04/01 10:40:44;;;;;;;0.23;0.20;;;;;15.90;95612.00;;;;5004858;28;20256;-69
2023/04/01 10:43:59;;;;;;;0.30;0.27;;;;;15.90;95608.00;;;;5004263;28;20628;-70
2023/04/01 10:47:27;;;;;;;0.30;0.30;;;;;15.70;95605.00;;;;5008830;28;20717;-69
2023/04/01 10:50:32;;;;;;;0.50;0.20;;;;;15.90;95599.00;;;;5008266;28;20226;-69
2023/04/01 10:53:41;;;;;;;0.40;0.40;;;;;16.50;95604.00;;;;5011123;28;20201;-69
2023/04/01 10:56:48;;;;;;;0.20;0.20;;;;;16.70;95600.00;;;;5006769;28;20198;-69
2023/04/01 11:00:09;;;;;;;0.20;0.20;;;;;16.90;95601.00;;;;5008437;28;20287;-70
2023/04/01 11:03:29;;;;;;;0.30;0.30;;;;;17.00;95602.00;;;;5007038;28;20225;-69
2023/04/01 11:06:57;;;;;;;0.40;0.40;;;;;16.30;95605.00;;;;4977034;28;20206;-68
2023/04/01 11:10:26;;;;;;;0.20;0.20;;;;;16.40;95601.00;;;;5002577;28;20692;-68
2023/04/01 11:13:42;;;;;;;2.70;0.40;;;;;17.10;95611.00;;;;5002932;28;20212;-68
2023/04/01 11:16:56;;;;;;;0.30;0.30;;;;;16.80;95617.00;;;;4998782;28;20894;-68
2023/04/01 11:20:11;;;;;;;0.20;0.20;;;;;16.70;95618.00;;;;5006257;28;20210;-68
2023/04/01 11:23:12;;;;;;;2.10;0.30;;;;;16.40;95612.00;;;;5002099;28;20233;-68
2023/04/01 11:26:13;;;;;;;0.30;0.30;;;;;16.50;95615.00;;;;5011063;28;20205;-68
2023/04/01 11:29:25;;;;;;;0.30;0.30;;;;;16.10;95605.00;;;;4999003;28;20254;-69
2023/04/01 11:32:24;;;;;;;0.30;0.30;;;;;16.20;95607.00;;;;4997129;28;21573;-75
2023/04/01 11:35:51;;;;;;;0.93;0.37;;;;;16.60;95609.00;;;;5003788;28;20206;-74
2023/04/01 11:39:20;;;;;;;0.30;0.30;;;;;16.30;95603.00;;;;5001605;28;20756;-71
2023/04/01 11:42:19;;;;;;;0.37;0.37;;;;;16.90;95597.00;;;;4943841;29;20230;-68
2023/04/01 11:45:22;;;;;;;0.40;0.40;;;;;17.40;95604.00;;;;5007471;28;20711;-69
2023/04/01 11:48:21;;;;;;;0.30;0.30;;;;;16.90;95591.00;;;;5014526;28;20211;-70
2023/04/01 11:51:41;;;;;;;0.53;0.53;;;;;17.20;95595.00;;;;5006680;28;20229;-70
2023/04/01 11:54:41;;;;;;;0.70;0.57;;;;;17.10;95590.00;;;;5008403;28;20280;-71
2023/04/01 11:57:51;;;;;;;2.13;1.67;;;;;17.30;95596.00;;;;5003801;28;20265;-71
2023/04/01 12:01:01;;;;;;;0.43;0.43;;;;;17.40;95605.00;;;;5009611;28;20226;-71
2023/04/01 12:04:15;;;;;;;0.83;0.40;;;;;17.40;95605.00;;;;4992983;28;20902;-71
2023/04/01 12:07:12;;;;;;;0.60;0.57;;;;;16.50;95603.00;;;;5000744;28;20213;-69
2023/04/01 12:10:06;;;;;;;0.40;0.40;;;;;16.00;95599.00;;;;5000656;28;20712;-68
2023/04/01 12:13:04;;;;;;;0.37;0.37;;;;;16.40;95594.00;;;;5001518;28;20201;-67
2023/04/01 12:16:14;;;;;;;0.30;0.30;;;;;16.90;95600.00;;;;5001771;28;20268;-68
2023/04/01 12:19:10;;;;;;;0.67;0.40;;;;;17.30;95605.00;;;;5002857;28;20205;-68
2023/04/01 12:22:12;;;;;;;0.27;0.27;;;;;16.80;95605.00;;;;5004370;28;20212;-69
2023/04/01 12:25:08;;;;;;;0.40;0.40;;;;;16.90;95607.00;;;;5002100;28;20720;-69
2023/04/01 12:28:10;;;;;;;0.53;0.20;;;;;17.20;95603.00;;;;5003131;28;20245;-69
2023/04/01 12:31:24;;;;;;;1.03;0.50;;;;;17.40;95590.00;;;;5005101;28;20230;-69
2023/04/01 12:34:51;;;;;;;0.30;0.30;;;;;17.60;95592.00;;;;5003172;28;20206;-69
2023/04/01 12:37:47;;;;;;;0.83;0.47;;;;;17.60;95596.00;;;;5012623;28;20201;-69
2023/04/01 12:40:51;;;;;;;0.87;0.40;;;;;17.70;95591.00;;;;5010180;28;20222;-69
2023/04/01 12:44:14;;;;;;;0.37;0.30;;;;;17.80;95585.00;;;;5011399;28;20225;-69
2023/04/01 12:47:24;;;;;;;0.20;0.20;;;;;17.80;95592.00;;;;5011946;28;20271;-69
2023/04/01 12:50:37;;;;;;;0.30;0.30;;;;;17.70;95587.00;;;;5007767;28;20315;-69
2023/04/01 12:53:43;;;;;;;1.00;0.53;;;;;17.90;95582.00;;;;5017386;28;20217;-69
2023/04/01 12:56:40;;;;;;;0.40;0.40;;;;;18.00;95583.00;;;;4998579;28;20260;-69
2023/04/01 12:59:45;;;;;;;0.37;0.30;;;;;18.00;95579.00;;;;5000467;28;20242;-69
2023/04/01 13:02:47;;;;;;;0.30;0.30;;;;;17.80;95578.00;;;;5011650;28;20315;-69
2023/04/01 13:05:56;;;;;;;0.70;0.60;;;;;17.40;95570.00;;;;4998310;28;20212;-69
2023/04/01 13:08:52;;;;;;;0.20;0.20;;;;;17.70;95574.00;;;;4995664;28;20289;-69
2023/04/01 13:11:52;;;;;;;0.40;0.30;;;;;17.50;95572.00;;;;5003875;28;20283;-69
2023/04/01 13:15:11;;;;;;;2.20;1.20;;;;;17.40;95568.00;;;;5011282;28;20198;-69
2023/04/01 13:18:06;;;;;;;0.57;0.20;;;;;16.60;95565.00;;;;5005160;28;20203;-71
2023/04/01 13:21:05;;;;;;;0.60;0.50;;;;;16.90;95560.00;;;;5003830;28;20222;-72
2023/04/01 13:24:01;;;;;;;0.40;0.40;;;;;17.00;95564.00;;;;5000551;28;20225;-72
2023/04/01 13:26:55;;;;;;;0.97;0.50;;;;;17.00;95558.00;;;;5003167;28;20213;-72
2023/04/01 13:29:49;;;;;;;0.63;0.53;;;;;17.70;95553.00;;;;5004613;28;20297;-72
2023/04/01 13:32:45;;;;;;;3.97;1.50;;;;;18.40;95545.00;;;;5004584;28;20225;-72
2023/04/01 13:35:40;;;;;;;1.60;1.40;;;;;18.50;95550.00;;;;5009647;28;20220;-73
2023/04/01 13:38:51;;;;;;;1.63;1.50;;;;;19.00;95557.00;;;;5014070;28;20205;-72
2023/04/01 13:41:56;;;;;;;0.70;0.53;;;;;19.50;95541.00;;;;4998604;28;20276;-72
2023/04/01 13:44:48;;;;;;;0.57;0.57;;;;;20.20;95536.00;;;;5003983;28;20281;-72
2023/04/01 13:48:03;;;;;;;0.60;0.60;;;;;20.70;95531.00;;;;5006955;28;20205;-72
2023/04/01 13:51:16;;;;;;;1.73;1.53;;;;;20.80;95535.00;;;;5011265;28;20637;-72
2023/04/01 13:54:29;;;;;;;1.00;0.80;;;;;21.60;95507.00;;;;5005990;28;20670;-72
2023/04/01 13:57:37;;;;;;;0.83;0.33;;;;;22.10;95512.00;;;;5007350;28;20785;-71
2023/04/01 14:00:46;;;;;;;0.50;0.47;;;;;22.70;95518.00;;;;5003573;28;20619;-72
2023/04/01 14:04:05;;;;;;;0.30;0.30;;;;;21.00;95497.00;;;;5009539;28;20205;-71
2023/04/01 14:07:00;;;;;;;0.60;0.40;;;;;22.60;95489.00;;;;4997903;28;20846;-72
2023/04/01 14:10:14;;;;;;;0.70;0.60;;;;;23.40;95529.00;;;;4989687;28;20234;-72
2023/04/01 14:13:08;;;;;;;0.40;0.40;;;;;23.50;95500.00;;;;5006013;28;20633;-72
2023/04/01 14:16:38;;;;;;;0.33;0.20;;;;;23.30;95504.00;;;;5005529;28;20233;-72
2023/04/01 14:19:40;;;;;;;0.30;0.30;;;;;24.20;95492.00;;;;5003029;28;20207;-72
2023/04/01 14:22:38;;;;;;;0.40;0.37;;;;;23.80;95503.00;;;;5003139;28;20254;-72
2023/04/01 14:25:42;;;;;;;0.23;0.23;;;;;23.90;95513.00;;;;5007903;28;20749;-72
2023/04/01 14:28:35;;;;;;;0.20;0.20;;;;;23.80;95513.00;;;;5009115;28;20574;-71
2023/04/01 14:31:38;;;;;;;0.30;0.20;;;;;23.20;95517.00;;;;5009998;28;20230;-71
2023/04/01 14:34:48;;;;;;;0.30;0.30;;;;;22.90;95507.00;;;;5000460;28;20236;-71
2023/04/01 14:38:04;;;;;;;0.50;0.40;;;;;22.60;95509.00;;;;5002092;28;20270;-71
2023/04/01 14:41:05;;;;;;;2.10;0.13;;;;;22.70;95487.00;;;;5003810;28;20230;-71
2023/04/01 14:44:25;;;;;;;0.80;0.57;;;;;23.30;95497.00;;;;4997178;28;20261;-71
2023/04/01 14:47:29;;;;;;;0.63;0.30;;;;;23.00;95493.00;;;;5003659;28;20211;-70
2023/04/01 14:50:21;;;;;;;1.90;0.80;;;;;23.50;95496.00;;;;5003185;28;20238;-70
2023/04/01 14:53:17;;;;;;;0.40;0.40;;;;;23.60;95483.00;;;;5007763;28;20209;-70
2023/04/01 14:56:06;;;;;;;0.30;0.30;;;;;23.30;95499.00;;;;5003820;28;20256;-71
2023/04/01 14:58:59;;;;;;;1.67;0.30;;;;;22.80;95510.00;;;;5008572;28;20269;-71
2023/04/01 15:01:54;;;;;;;0.30;0.23;;;;;22.40;95512.00;;;;5005263;28;20228;-71